臺中航空站 - ATIS

METAR RCMQ 181130Z 36005KT 9999 FEW010 BKN050 14/10 Q1019 NOSIG RMK A3009=

站台狀態:Online
最後更新:2020-01-18 19:30:02